<?xml version="1.0" encoding="UTF-8" standalone="no" ?>
<gpx xmlns="http://www.topografix.com/GPX/1/1" xmlns:xsi="http://www.w3.org/2001/XMLSchema-instance" xsi:schemaLocation="http://www.topografix.com/GPX/1/1 http://www.topografix.com/GPX/1/1/gpx.xsd" version="1.1" creator="VisuGPX - https://www.visugpx.com">
  <metadata>
    <name>WALCOURT 60</name>
  </metadata>
  <trk>
    <name><![CDATA[WALCOURT 60]]></name>
    <trkseg>
      <trkpt lat="50.29006" lon="4.56259">
        <ele>244</ele>
        <time>2020-07-22T17:24:06+02:00</time>
      </trkpt>
      <trkpt lat="50.29461" lon="4.55873">
        <ele>253</ele>
        <time>2020-07-22T17:24:11+02:00</time>
      </trkpt>
      <trkpt lat="50.29731" lon="4.55162">
        <ele>235</ele>
        <time>2020-07-22T17:24:16+02:00</time>
      </trkpt>
      <trkpt lat="50.29673" lon="4.55068">
        <ele>234</ele>
        <time>2020-07-22T17:24:21+02:00</time>
      </trkpt>
      <trkpt lat="50.29731" lon="4.54982">
        <ele>235</ele>
        <time>2020-07-22T17:24:26+02:00</time>
      </trkpt>
      <trkpt lat="50.2975" lon="4.54755">
        <ele>238</ele>
        <time>2020-07-22T17:24:31+02:00</time>
      </trkpt>
      <trkpt lat="50.2958" lon="4.54793">
        <ele>225</ele>
        <time>2020-07-22T17:24:36+02:00</time>
      </trkpt>
      <trkpt lat="50.29413" lon="4.54987">
        <ele>222</ele>
        <time>2020-07-22T17:24:41+02:00</time>
      </trkpt>
      <trkpt lat="50.29303" lon="4.54892">
        <ele>219</ele>
        <time>2020-07-22T17:24:46+02:00</time>
      </trkpt>
      <trkpt lat="50.29342" lon="4.54763">
        <ele>219</ele>
        <time>2020-07-22T17:24:51+02:00</time>
      </trkpt>
      <trkpt lat="50.29486" lon="4.54615">
        <ele>216</ele>
        <time>2020-07-22T17:24:56+02:00</time>
      </trkpt>
      <trkpt lat="50.2943" lon="4.52897">
        <ele>210</ele>
        <time>2020-07-22T17:25:01+02:00</time>
      </trkpt>
      <trkpt lat="50.29526" lon="4.52691">
        <ele>207</ele>
        <time>2020-07-22T17:25:06+02:00</time>
      </trkpt>
      <trkpt lat="50.29446" lon="4.52523">
        <ele>207</ele>
        <time>2020-07-22T17:25:11+02:00</time>
      </trkpt>
      <trkpt lat="50.2935" lon="4.52476">
        <ele>209</ele>
        <time>2020-07-22T17:25:16+02:00</time>
      </trkpt>
      <trkpt lat="50.29339" lon="4.52364">
        <ele>207</ele>
        <time>2020-07-22T17:25:21+02:00</time>
      </trkpt>
      <trkpt lat="50.29079" lon="4.52622">
        <ele>224</ele>
        <time>2020-07-22T17:25:26+02:00</time>
      </trkpt>
      <trkpt lat="50.28813" lon="4.53193">
        <ele>259</ele>
        <time>2020-07-22T17:25:31+02:00</time>
      </trkpt>
      <trkpt lat="50.28316" lon="4.52888">
        <ele>275</ele>
        <time>2020-07-22T17:25:36+02:00</time>
      </trkpt>
      <trkpt lat="50.28366" lon="4.52592">
        <ele>266</ele>
        <time>2020-07-22T17:25:41+02:00</time>
      </trkpt>
      <trkpt lat="50.28635" lon="4.5263">
        <ele>247</ele>
        <time>2020-07-22T17:25:46+02:00</time>
      </trkpt>
      <trkpt lat="50.28744" lon="4.51639">
        <ele>199</ele>
        <time>2020-07-22T17:25:51+02:00</time>
      </trkpt>
      <trkpt lat="50.28673" lon="4.51635">
        <ele>194</ele>
        <time>2020-07-22T17:25:56+02:00</time>
      </trkpt>
      <trkpt lat="50.28692" lon="4.50738">
        <ele>223</ele>
        <time>2020-07-22T17:26:01+02:00</time>
      </trkpt>
      <trkpt lat="50.29361" lon="4.48931">
        <ele>217</ele>
        <time>2020-07-22T17:26:06+02:00</time>
      </trkpt>
      <trkpt lat="50.29106" lon="4.49257">
        <ele>221</ele>
        <time>2020-07-22T17:26:11+02:00</time>
      </trkpt>
      <trkpt lat="50.28785" lon="4.48764">
        <ele>212</ele>
        <time>2020-07-22T17:26:16+02:00</time>
      </trkpt>
      <trkpt lat="50.28703" lon="4.49236">
        <ele>198</ele>
        <time>2020-07-22T17:26:21+02:00</time>
      </trkpt>
      <trkpt lat="50.28837" lon="4.49785">
        <ele>201</ele>
        <time>2020-07-22T17:26:26+02:00</time>
      </trkpt>
      <trkpt lat="50.2861" lon="4.50223">
        <ele>209</ele>
        <time>2020-07-22T17:26:31+02:00</time>
      </trkpt>
      <trkpt lat="50.2805" lon="4.49206">
        <ele>183</ele>
        <time>2020-07-22T17:26:36+02:00</time>
      </trkpt>
      <trkpt lat="50.27754" lon="4.49416">
        <ele>188</ele>
        <time>2020-07-22T17:26:41+02:00</time>
      </trkpt>
      <trkpt lat="50.27458" lon="4.48935">
        <ele>205</ele>
        <time>2020-07-22T17:26:46+02:00</time>
      </trkpt>
      <trkpt lat="50.2737" lon="4.49021">
        <ele>206</ele>
        <time>2020-07-22T17:26:51+02:00</time>
      </trkpt>
      <trkpt lat="50.27167" lon="4.48729">
        <ele>230</ele>
        <time>2020-07-22T17:26:56+02:00</time>
      </trkpt>
      <trkpt lat="50.27025" lon="4.48738">
        <ele>251</ele>
        <time>2020-07-22T17:27:01+02:00</time>
      </trkpt>
      <trkpt lat="50.26822" lon="4.47515">
        <ele>257</ele>
        <time>2020-07-22T17:27:06+02:00</time>
      </trkpt>
      <trkpt lat="50.26709" lon="4.47592">
        <ele>267</ele>
        <time>2020-07-22T17:27:11+02:00</time>
      </trkpt>
      <trkpt lat="50.26739" lon="4.48193">
        <ele>265</ele>
        <time>2020-07-22T17:27:16+02:00</time>
      </trkpt>
      <trkpt lat="50.26539" lon="4.48614">
        <ele>258</ele>
        <time>2020-07-22T17:27:21+02:00</time>
      </trkpt>
      <trkpt lat="50.26449" lon="4.49133">
        <ele>257</ele>
        <time>2020-07-22T17:27:26+02:00</time>
      </trkpt>
      <trkpt lat="50.26769" lon="4.48918">
        <ele>245</ele>
        <time>2020-07-22T17:27:31+02:00</time>
      </trkpt>
      <trkpt lat="50.26933" lon="4.4893">
        <ele>240</ele>
        <time>2020-07-22T17:27:36+02:00</time>
      </trkpt>
      <trkpt lat="50.26841" lon="4.48795">
        <ele>247</ele>
        <time>2020-07-22T17:27:41+02:00</time>
      </trkpt>
      <trkpt lat="50.26914" lon="4.48773">
        <ele>255</ele>
        <time>2020-07-22T17:27:46+02:00</time>
      </trkpt>
      <trkpt lat="50.26863" lon="4.48413">
        <ele>265</ele>
        <time>2020-07-22T17:27:51+02:00</time>
      </trkpt>
      <trkpt lat="50.26682" lon="4.48238">
        <ele>264</ele>
        <time>2020-07-22T17:27:56+02:00</time>
      </trkpt>
      <trkpt lat="50.2632" lon="4.48075">
        <ele>261</ele>
        <time>2020-07-22T17:28:01+02:00</time>
      </trkpt>
      <trkpt lat="50.2638" lon="4.47609">
        <ele>266</ele>
        <time>2020-07-22T17:28:06+02:00</time>
      </trkpt>
      <trkpt lat="50.26503" lon="4.47195">
        <ele>260</ele>
        <time>2020-07-22T17:28:11+02:00</time>
      </trkpt>
      <trkpt lat="50.26709" lon="4.47498">
        <ele>261</ele>
        <time>2020-07-22T17:28:16+02:00</time>
      </trkpt>
      <trkpt lat="50.27074" lon="4.47307">
        <ele>224</ele>
        <time>2020-07-22T17:28:21+02:00</time>
      </trkpt>
      <trkpt lat="50.26479" lon="4.47015">
        <ele>260</ele>
        <time>2020-07-22T17:28:26+02:00</time>
      </trkpt>
      <trkpt lat="50.26128" lon="4.46461">
        <ele>243</ele>
        <time>2020-07-22T17:28:31+02:00</time>
      </trkpt>
      <trkpt lat="50.261" lon="4.46097">
        <ele>239</ele>
        <time>2020-07-22T17:28:36+02:00</time>
      </trkpt>
      <trkpt lat="50.25798" lon="4.46114">
        <ele>223</ele>
        <time>2020-07-22T17:28:41+02:00</time>
      </trkpt>
      <trkpt lat="50.25713" lon="4.46337">
        <ele>226</ele>
        <time>2020-07-22T17:28:46+02:00</time>
      </trkpt>
      <trkpt lat="50.25178" lon="4.4662">
        <ele>238</ele>
        <time>2020-07-22T17:28:51+02:00</time>
      </trkpt>
      <trkpt lat="50.25121" lon="4.47071">
        <ele>231</ele>
        <time>2020-07-22T17:28:56+02:00</time>
      </trkpt>
      <trkpt lat="50.25351" lon="4.47998">
        <ele>216</ele>
        <time>2020-07-22T17:29:01+02:00</time>
      </trkpt>
      <trkpt lat="50.252" lon="4.48114">
        <ele>212</ele>
        <time>2020-07-22T17:29:06+02:00</time>
      </trkpt>
      <trkpt lat="50.24596" lon="4.47569">
        <ele>204</ele>
        <time>2020-07-22T17:29:11+02:00</time>
      </trkpt>
      <trkpt lat="50.24484" lon="4.47221">
        <ele>199</ele>
        <time>2020-07-22T17:29:16+02:00</time>
      </trkpt>
      <trkpt lat="50.24569" lon="4.46688">
        <ele>191</ele>
        <time>2020-07-22T17:29:21+02:00</time>
      </trkpt>
      <trkpt lat="50.24553" lon="4.46638">
        <ele>193</ele>
        <time>2020-07-22T17:29:26+02:00</time>
      </trkpt>
      <trkpt lat="50.24612" lon="4.46576">
        <ele>195</ele>
        <time>2020-07-22T17:29:31+02:00</time>
      </trkpt>
      <trkpt lat="50.24679" lon="4.46623">
        <ele>198</ele>
        <time>2020-07-22T17:29:36+02:00</time>
      </trkpt>
      <trkpt lat="50.2476" lon="4.46529">
        <ele>206</ele>
        <time>2020-07-22T17:29:41+02:00</time>
      </trkpt>
      <trkpt lat="50.24983" lon="4.46686">
        <ele>223</ele>
        <time>2020-07-22T17:29:46+02:00</time>
      </trkpt>
      <trkpt lat="50.24999" lon="4.46593">
        <ele>226</ele>
        <time>2020-07-22T17:29:51+02:00</time>
      </trkpt>
      <trkpt lat="50.249" lon="4.459">
        <ele>235</ele>
        <time>2020-07-22T17:29:56+02:00</time>
      </trkpt>
      <trkpt lat="50.24915" lon="4.45618">
        <ele>237</ele>
        <time>2020-07-22T17:30:01+02:00</time>
      </trkpt>
      <trkpt lat="50.24736" lon="4.45584">
        <ele>233</ele>
        <time>2020-07-22T17:30:06+02:00</time>
      </trkpt>
      <trkpt lat="50.24687" lon="4.45828">
        <ele>229</ele>
        <time>2020-07-22T17:30:11+02:00</time>
      </trkpt>
      <trkpt lat="50.24522" lon="4.46009">
        <ele>209</ele>
        <time>2020-07-22T17:30:16+02:00</time>
      </trkpt>
      <trkpt lat="50.24401" lon="4.46266">
        <ele>190</ele>
        <time>2020-07-22T17:30:21+02:00</time>
      </trkpt>
      <trkpt lat="50.24453" lon="4.46494">
        <ele>189</ele>
        <time>2020-07-22T17:30:26+02:00</time>
      </trkpt>
      <trkpt lat="50.24366" lon="4.46476">
        <ele>190</ele>
        <time>2020-07-22T17:30:31+02:00</time>
      </trkpt>
      <trkpt lat="50.24261" lon="4.45923">
        <ele>186</ele>
        <time>2020-07-22T17:30:36+02:00</time>
      </trkpt>
      <trkpt lat="50.24311" lon="4.4582">
        <ele>190</ele>
        <time>2020-07-22T17:30:41+02:00</time>
      </trkpt>
      <trkpt lat="50.24234" lon="4.4564">
        <ele>196</ele>
        <time>2020-07-22T17:30:46+02:00</time>
      </trkpt>
      <trkpt lat="50.24256" lon="4.45515">
        <ele>184</ele>
        <time>2020-07-22T17:30:51+02:00</time>
      </trkpt>
      <trkpt lat="50.24429" lon="4.45485">
        <ele>187</ele>
        <time>2020-07-22T17:30:56+02:00</time>
      </trkpt>
      <trkpt lat="50.24456" lon="4.45404">
        <ele>198</ele>
        <time>2020-07-22T17:31:01+02:00</time>
      </trkpt>
      <trkpt lat="50.24308" lon="4.45425">
        <ele>195</ele>
        <time>2020-07-22T17:31:06+02:00</time>
      </trkpt>
      <trkpt lat="50.24404" lon="4.45082">
        <ele>177</ele>
        <time>2020-07-22T17:31:11+02:00</time>
      </trkpt>
      <trkpt lat="50.24489" lon="4.45095">
        <ele>181</ele>
        <time>2020-07-22T17:31:16+02:00</time>
      </trkpt>
      <trkpt lat="50.24486" lon="4.45202">
        <ele>191</ele>
        <time>2020-07-22T17:31:21+02:00</time>
      </trkpt>
      <trkpt lat="50.24519" lon="4.45305">
        <ele>203</ele>
        <time>2020-07-22T17:31:26+02:00</time>
      </trkpt>
      <trkpt lat="50.24635" lon="4.45489">
        <ele>222</ele>
        <time>2020-07-22T17:31:31+02:00</time>
      </trkpt>
      <trkpt lat="50.24703" lon="4.45554">
        <ele>231</ele>
        <time>2020-07-22T17:31:36+02:00</time>
      </trkpt>
      <trkpt lat="50.24925" lon="4.45588">
        <ele>237</ele>
        <time>2020-07-22T17:31:41+02:00</time>
      </trkpt>
      <trkpt lat="50.25005" lon="4.45292">
        <ele>223</ele>
        <time>2020-07-22T17:31:46+02:00</time>
      </trkpt>
      <trkpt lat="50.25003" lon="4.44464">
        <ele>192</ele>
        <time>2020-07-22T17:31:51+02:00</time>
      </trkpt>
      <trkpt lat="50.2507" lon="4.44119">
        <ele>169</ele>
        <time>2020-07-22T17:31:56+02:00</time>
      </trkpt>
      <trkpt lat="50.252" lon="4.43867">
        <ele>171</ele>
        <time>2020-07-22T17:32:01+02:00</time>
      </trkpt>
      <trkpt lat="50.25082" lon="4.43918">
        <ele>176</ele>
        <time>2020-07-22T17:32:06+02:00</time>
      </trkpt>
      <trkpt lat="50.24914" lon="4.44038">
        <ele>187</ele>
        <time>2020-07-22T17:32:11+02:00</time>
      </trkpt>
      <trkpt lat="50.24733" lon="4.43888">
        <ele>206</ele>
        <time>2020-07-22T17:32:16+02:00</time>
      </trkpt>
      <trkpt lat="50.24601" lon="4.43682">
        <ele>222</ele>
        <time>2020-07-22T17:32:21+02:00</time>
      </trkpt>
      <trkpt lat="50.24524" lon="4.43652">
        <ele>229</ele>
        <time>2020-07-22T17:32:26+02:00</time>
      </trkpt>
      <trkpt lat="50.24396" lon="4.43794">
        <ele>233</ele>
        <time>2020-07-22T17:32:31+02:00</time>
      </trkpt>
      <trkpt lat="50.23918" lon="4.43974">
        <ele>227</ele>
        <time>2020-07-22T17:32:36+02:00</time>
      </trkpt>
      <trkpt lat="50.24174" lon="4.43009">
        <ele>225</ele>
        <time>2020-07-22T17:32:41+02:00</time>
      </trkpt>
      <trkpt lat="50.24028" lon="4.42902">
        <ele>221</ele>
        <time>2020-07-22T17:32:46+02:00</time>
      </trkpt>
      <trkpt lat="50.23806" lon="4.4288">
        <ele>217</ele>
        <time>2020-07-22T17:32:51+02:00</time>
      </trkpt>
      <trkpt lat="50.23751" lon="4.42837">
        <ele>214</ele>
        <time>2020-07-22T17:32:56+02:00</time>
      </trkpt>
      <trkpt lat="50.23701" lon="4.42726">
        <ele>205</ele>
        <time>2020-07-22T17:33:01+02:00</time>
      </trkpt>
      <trkpt lat="50.23663" lon="4.42623">
        <ele>197</ele>
        <time>2020-07-22T17:33:06+02:00</time>
      </trkpt>
      <trkpt lat="50.23564" lon="4.42434">
        <ele>187</ele>
        <time>2020-07-22T17:33:11+02:00</time>
      </trkpt>
      <trkpt lat="50.23364" lon="4.42189">
        <ele>174</ele>
        <time>2020-07-22T17:33:16+02:00</time>
      </trkpt>
      <trkpt lat="50.23292" lon="4.42262">
        <ele>179</ele>
        <time>2020-07-22T17:33:21+02:00</time>
      </trkpt>
      <trkpt lat="50.22999" lon="4.43017">
        <ele>198</ele>
        <time>2020-07-22T17:33:26+02:00</time>
      </trkpt>
      <trkpt lat="50.23254" lon="4.43434">
        <ele>230</ele>
        <time>2020-07-22T17:33:31+02:00</time>
      </trkpt>
      <trkpt lat="50.2307" lon="4.43438">
        <ele>233</ele>
        <time>2020-07-22T17:33:36+02:00</time>
      </trkpt>
      <trkpt lat="50.22925" lon="4.43618">
        <ele>227</ele>
        <time>2020-07-22T17:33:41+02:00</time>
      </trkpt>
      <trkpt lat="50.229" lon="4.4388">
        <ele>223</ele>
        <time>2020-07-22T17:33:46+02:00</time>
      </trkpt>
      <trkpt lat="50.22834" lon="4.4403">
        <ele>208</ele>
        <time>2020-07-22T17:33:51+02:00</time>
      </trkpt>
      <trkpt lat="50.22856" lon="4.44635">
        <ele>222</ele>
        <time>2020-07-22T17:33:56+02:00</time>
      </trkpt>
      <trkpt lat="50.22611" lon="4.44849">
        <ele>226</ele>
        <time>2020-07-22T17:34:01+02:00</time>
      </trkpt>
      <trkpt lat="50.2265" lon="4.45305">
        <ele>230</ele>
        <time>2020-07-22T17:34:06+02:00</time>
      </trkpt>
      <trkpt lat="50.22642" lon="4.45502">
        <ele>232</ele>
        <time>2020-07-22T17:34:11+02:00</time>
      </trkpt>
      <trkpt lat="50.22606" lon="4.45648">
        <ele>226</ele>
        <time>2020-07-22T17:34:16+02:00</time>
      </trkpt>
      <trkpt lat="50.22457" lon="4.45626">
        <ele>220</ele>
        <time>2020-07-22T17:34:21+02:00</time>
      </trkpt>
      <trkpt lat="50.22471" lon="4.45819">
        <ele>224</ele>
        <time>2020-07-22T17:34:26+02:00</time>
      </trkpt>
      <trkpt lat="50.22562" lon="4.45845">
        <ele>226</ele>
        <time>2020-07-22T17:34:31+02:00</time>
      </trkpt>
      <trkpt lat="50.22515" lon="4.46145">
        <ele>233</ele>
        <time>2020-07-22T17:34:36+02:00</time>
      </trkpt>
      <trkpt lat="50.22655" lon="4.46356">
        <ele>247</ele>
        <time>2020-07-22T17:34:41+02:00</time>
      </trkpt>
      <trkpt lat="50.22718" lon="4.46532">
        <ele>256</ele>
        <time>2020-07-22T17:34:46+02:00</time>
      </trkpt>
      <trkpt lat="50.22532" lon="4.46823">
        <ele>258</ele>
        <time>2020-07-22T17:34:51+02:00</time>
      </trkpt>
      <trkpt lat="50.22452" lon="4.47158">
        <ele>259</ele>
        <time>2020-07-22T17:34:56+02:00</time>
      </trkpt>
      <trkpt lat="50.22493" lon="4.47386">
        <ele>259</ele>
        <time>2020-07-22T17:35:01+02:00</time>
      </trkpt>
      <trkpt lat="50.22164" lon="4.47231">
        <ele>256</ele>
        <time>2020-07-22T17:35:06+02:00</time>
      </trkpt>
      <trkpt lat="50.22166" lon="4.47429">
        <ele>266</ele>
        <time>2020-07-22T17:35:11+02:00</time>
      </trkpt>
      <trkpt lat="50.22007" lon="4.47587">
        <ele>263</ele>
        <time>2020-07-22T17:35:16+02:00</time>
      </trkpt>
      <trkpt lat="50.22092" lon="4.48523">
        <ele>264</ele>
        <time>2020-07-22T17:35:21+02:00</time>
      </trkpt>
      <trkpt lat="50.22059" lon="4.48828">
        <ele>264</ele>
        <time>2020-07-22T17:35:26+02:00</time>
      </trkpt>
      <trkpt lat="50.22251" lon="4.49029">
        <ele>271</ele>
        <time>2020-07-22T17:35:31+02:00</time>
      </trkpt>
      <trkpt lat="50.22312" lon="4.49338">
        <ele>270</ele>
        <time>2020-07-22T17:35:36+02:00</time>
      </trkpt>
      <trkpt lat="50.22375" lon="4.49604">
        <ele>266</ele>
        <time>2020-07-22T17:35:41+02:00</time>
      </trkpt>
      <trkpt lat="50.22705" lon="4.49613">
        <ele>248</ele>
        <time>2020-07-22T17:35:46+02:00</time>
      </trkpt>
      <trkpt lat="50.22971" lon="4.49411">
        <ele>243</ele>
        <time>2020-07-22T17:35:51+02:00</time>
      </trkpt>
      <trkpt lat="50.22941" lon="4.49197">
        <ele>237</ele>
        <time>2020-07-22T17:35:56+02:00</time>
      </trkpt>
      <trkpt lat="50.23081" lon="4.49029">
        <ele>243</ele>
        <time>2020-07-22T17:36:01+02:00</time>
      </trkpt>
      <trkpt lat="50.23256" lon="4.49021">
        <ele>252</ele>
        <time>2020-07-22T17:36:06+02:00</time>
      </trkpt>
      <trkpt lat="50.23525" lon="4.49192">
        <ele>237</ele>
        <time>2020-07-22T17:36:11+02:00</time>
      </trkpt>
      <trkpt lat="50.23586" lon="4.4951">
        <ele>218</ele>
        <time>2020-07-22T17:36:16+02:00</time>
      </trkpt>
      <trkpt lat="50.23641" lon="4.49463">
        <ele>209</ele>
        <time>2020-07-22T17:36:21+02:00</time>
      </trkpt>
      <trkpt lat="50.23797" lon="4.49476">
        <ele>200</ele>
        <time>2020-07-22T17:36:26+02:00</time>
      </trkpt>
      <trkpt lat="50.23803" lon="4.49986">
        <ele>213</ele>
        <time>2020-07-22T17:36:31+02:00</time>
      </trkpt>
      <trkpt lat="50.23792" lon="4.50304">
        <ele>208</ele>
        <time>2020-07-22T17:36:36+02:00</time>
      </trkpt>
      <trkpt lat="50.23882" lon="4.50501">
        <ele>213</ele>
        <time>2020-07-22T17:36:41+02:00</time>
      </trkpt>
      <trkpt lat="50.23899" lon="4.5075">
        <ele>209</ele>
        <time>2020-07-22T17:36:46+02:00</time>
      </trkpt>
      <trkpt lat="50.24072" lon="4.50797">
        <ele>224</ele>
        <time>2020-07-22T17:36:51+02:00</time>
      </trkpt>
      <trkpt lat="50.24028" lon="4.49755">
        <ele>229</ele>
        <time>2020-07-22T17:36:56+02:00</time>
      </trkpt>
      <trkpt lat="50.24006" lon="4.4969">
        <ele>228</ele>
        <time>2020-07-22T17:37:01+02:00</time>
      </trkpt>
      <trkpt lat="50.24146" lon="4.49626">
        <ele>222</ele>
        <time>2020-07-22T17:37:06+02:00</time>
      </trkpt>
      <trkpt lat="50.24085" lon="4.4933">
        <ele>214</ele>
        <time>2020-07-22T17:37:11+02:00</time>
      </trkpt>
      <trkpt lat="50.24146" lon="4.49343">
        <ele>219</ele>
        <time>2020-07-22T17:37:16+02:00</time>
      </trkpt>
      <trkpt lat="50.24173" lon="4.49411">
        <ele>220</ele>
        <time>2020-07-22T17:37:21+02:00</time>
      </trkpt>
      <trkpt lat="50.25035" lon="4.49501">
        <ele>254</ele>
        <time>2020-07-22T17:37:26+02:00</time>
      </trkpt>
      <trkpt lat="50.25403" lon="4.49077">
        <ele>240</ele>
        <time>2020-07-22T17:37:31+02:00</time>
      </trkpt>
      <trkpt lat="50.25425" lon="4.48892">
        <ele>225</ele>
        <time>2020-07-22T17:37:36+02:00</time>
      </trkpt>
      <trkpt lat="50.2563" lon="4.49158">
        <ele>225</ele>
        <time>2020-07-22T17:37:41+02:00</time>
      </trkpt>
      <trkpt lat="50.25822" lon="4.50145">
        <ele>242</ele>
        <time>2020-07-22T17:37:46+02:00</time>
      </trkpt>
      <trkpt lat="50.2594" lon="4.49952">
        <ele>228</ele>
        <time>2020-07-22T17:37:51+02:00</time>
      </trkpt>
      <trkpt lat="50.25924" lon="4.49828">
        <ele>227</ele>
        <time>2020-07-22T17:37:56+02:00</time>
      </trkpt>
      <trkpt lat="50.26023" lon="4.49888">
        <ele>229</ele>
        <time>2020-07-22T17:38:01+02:00</time>
      </trkpt>
      <trkpt lat="50.26031" lon="4.49274">
        <ele>240</ele>
        <time>2020-07-22T17:38:06+02:00</time>
      </trkpt>
      <trkpt lat="50.26168" lon="4.49167">
        <ele>249</ele>
        <time>2020-07-22T17:38:11+02:00</time>
      </trkpt>
      <trkpt lat="50.26196" lon="4.49115">
        <ele>250</ele>
        <time>2020-07-22T17:38:16+02:00</time>
      </trkpt>
      <trkpt lat="50.26413" lon="4.49189">
        <ele>256</ele>
        <time>2020-07-22T17:38:21+02:00</time>
      </trkpt>
      <trkpt lat="50.26714" lon="4.49026">
        <ele>249</ele>
        <time>2020-07-22T17:38:26+02:00</time>
      </trkpt>
      <trkpt lat="50.26813" lon="4.48953">
        <ele>245</ele>
        <time>2020-07-22T17:38:31+02:00</time>
      </trkpt>
      <trkpt lat="50.26922" lon="4.48991">
        <ele>240</ele>
        <time>2020-07-22T17:38:36+02:00</time>
      </trkpt>
      <trkpt lat="50.26986" lon="4.4942">
        <ele>253</ele>
        <time>2020-07-22T17:38:41+02:00</time>
      </trkpt>
      <trkpt lat="50.27117" lon="4.4936">
        <ele>251</ele>
        <time>2020-07-22T17:38:46+02:00</time>
      </trkpt>
      <trkpt lat="50.27293" lon="4.50192">
        <ele>228</ele>
        <time>2020-07-22T17:38:51+02:00</time>
      </trkpt>
      <trkpt lat="50.27622" lon="4.49973">
        <ele>188</ele>
        <time>2020-07-22T17:38:56+02:00</time>
      </trkpt>
      <trkpt lat="50.27723" lon="4.5021">
        <ele>189</ele>
        <time>2020-07-22T17:39:01+02:00</time>
      </trkpt>
      <trkpt lat="50.27754" lon="4.50454">
        <ele>191</ele>
        <time>2020-07-22T17:39:06+02:00</time>
      </trkpt>
      <trkpt lat="50.27682" lon="4.50776">
        <ele>196</ele>
        <time>2020-07-22T17:39:11+02:00</time>
      </trkpt>
      <trkpt lat="50.27721" lon="4.50943">
        <ele>197</ele>
        <time>2020-07-22T17:39:16+02:00</time>
      </trkpt>
      <trkpt lat="50.27647" lon="4.51162">
        <ele>219</ele>
        <time>2020-07-22T17:39:21+02:00</time>
      </trkpt>
      <trkpt lat="50.27279" lon="4.50948">
        <ele>259</ele>
        <time>2020-07-22T17:39:26+02:00</time>
      </trkpt>
      <trkpt lat="50.2723" lon="4.51192">
        <ele>267</ele>
        <time>2020-07-22T17:39:31+02:00</time>
      </trkpt>
      <trkpt lat="50.2723" lon="4.51381">
        <ele>266</ele>
        <time>2020-07-22T17:39:36+02:00</time>
      </trkpt>
      <trkpt lat="50.27457" lon="4.51681">
        <ele>265</ele>
        <time>2020-07-22T17:39:41+02:00</time>
      </trkpt>
      <trkpt lat="50.2757" lon="4.51733">
        <ele>255</ele>
        <time>2020-07-22T17:39:46+02:00</time>
      </trkpt>
      <trkpt lat="50.27786" lon="4.51441">
        <ele>216</ele>
        <time>2020-07-22T17:39:51+02:00</time>
      </trkpt>
      <trkpt lat="50.27839" lon="4.5154">
        <ele>218</ele>
        <time>2020-07-22T17:39:56+02:00</time>
      </trkpt>
      <trkpt lat="50.27767" lon="4.51896">
        <ele>232</ele>
        <time>2020-07-22T17:40:01+02:00</time>
      </trkpt>
      <trkpt lat="50.27734" lon="4.52321">
        <ele>253</ele>
        <time>2020-07-22T17:40:06+02:00</time>
      </trkpt>
      <trkpt lat="50.27855" lon="4.52471">
        <ele>267</ele>
        <time>2020-07-22T17:40:11+02:00</time>
      </trkpt>
      <trkpt lat="50.27507" lon="4.52613">
        <ele>272</ele>
        <time>2020-07-22T17:40:16+02:00</time>
      </trkpt>
      <trkpt lat="50.27559" lon="4.52849">
        <ele>277</ele>
        <time>2020-07-22T17:40:21+02:00</time>
      </trkpt>
      <trkpt lat="50.27605" lon="4.52905">
        <ele>279</ele>
        <time>2020-07-22T17:40:26+02:00</time>
      </trkpt>
      <trkpt lat="50.28061" lon="4.53016">
        <ele>276</ele>
        <time>2020-07-22T17:40:31+02:00</time>
      </trkpt>
      <trkpt lat="50.2856" lon="4.53703">
        <ele>271</ele>
        <time>2020-07-22T17:40:36+02:00</time>
      </trkpt>
      <trkpt lat="50.2882" lon="4.5363">
        <ele>271</ele>
        <time>2020-07-22T17:40:41+02:00</time>
      </trkpt>
      <trkpt lat="50.28554" lon="4.5454">
        <ele>259</ele>
        <time>2020-07-22T17:40:46+02:00</time>
      </trkpt>
      <trkpt lat="50.28642" lon="4.54677">
        <ele>261</ele>
        <time>2020-07-22T17:40:51+02:00</time>
      </trkpt>
      <trkpt lat="50.28866" lon="4.54777">
        <ele>256</ele>
        <time>2020-07-22T17:40:56+02:00</time>
      </trkpt>
      <trkpt lat="50.28874" lon="4.54951">
        <ele>243</ele>
        <time>2020-07-22T17:41:01+02:00</time>
      </trkpt>
      <trkpt lat="50.28846" lon="4.55084">
        <ele>229</ele>
        <time>2020-07-22T17:41:06+02:00</time>
      </trkpt>
      <trkpt lat="50.29" lon="4.55277">
        <ele>223</ele>
        <time>2020-07-22T17:41:11+02:00</time>
      </trkpt>
      <trkpt lat="50.29192" lon="4.5524">
        <ele>219</ele>
        <time>2020-07-22T17:41:16+02:00</time>
      </trkpt>
      <trkpt lat="50.29262" lon="4.54935">
        <ele>225</ele>
        <time>2020-07-22T17:41:21+02:00</time>
      </trkpt>
      <trkpt lat="50.29358" lon="4.54978">
        <ele>216</ele>
        <time>2020-07-22T17:41:26+02:00</time>
      </trkpt>
      <trkpt lat="50.29364" lon="4.5512">
        <ele>225</ele>
        <time>2020-07-22T17:41:31+02:00</time>
      </trkpt>
      <trkpt lat="50.29383" lon="4.55227">
        <ele>231</ele>
        <time>2020-07-22T17:41:36+02:00</time>
      </trkpt>
      <trkpt lat="50.29355" lon="4.55338">
        <ele>232</ele>
        <time>2020-07-22T17:41:41+02:00</time>
      </trkpt>
      <trkpt lat="50.2935" lon="4.55489">
        <ele>235</ele>
        <time>2020-07-22T17:41:46+02:00</time>
      </trkpt>
      <trkpt lat="50.29385" lon="4.5575">
        <ele>243</ele>
        <time>2020-07-22T17:41:51+02:00</time>
      </trkpt>
      <trkpt lat="50.29454" lon="4.55869">
        <ele>253</ele>
        <time>2020-07-22T17:41:56+02:00</time>
      </trkpt>
      <trkpt lat="50.29" lon="4.56266">
        <ele>244</ele>
        <time>2020-07-22T17:42:01+02:00</time>
      </trkpt>
      <trkpt lat="50.28977" lon="4.56178">
        <ele>243</ele>
        <time>2020-07-22T17:42:06+02:00</time>
      </trkpt>
    </trkseg>
  </trk>
</gpx>